createdAt,value
2023-04-14T09:38:16.773Z,59.80
2023-04-14T09:40:44.845Z,41.00
2023-04-14T10:51:02.495Z,39.60
2023-04-14T10:53:36.617Z,31.60
2023-04-14T10:56:05.154Z,35.50
2023-04-14T10:58:34.472Z,37.30
2023-04-14T11:01:20.376Z,38.50
2023-04-14T11:03:47.279Z,33.50
2023-04-14T11:06:13.982Z,30.30
2023-04-14T11:08:50.079Z,30.00
2023-04-14T11:11:17.242Z,31.70
2023-04-14T11:13:43.902Z,31.30
2023-04-14T11:16:10.820Z,32.30
2023-04-14T11:18:59.671Z,30.30
2023-04-14T11:21:26.745Z,32.00
2023-04-14T11:23:53.391Z,32.90
2023-04-14T11:26:23.738Z,29.70
2023-04-14T11:28:53.146Z,30.00
2023-04-14T11:31:22.469Z,28.20
2023-04-14T11:33:49.844Z,27.80
2023-04-14T11:36:16.535Z,28.50
2023-04-14T11:38:43.421Z,34.10
2023-04-14T11:41:10.477Z,32.70
2023-04-14T11:43:38.186Z,35.40
2023-04-14T11:46:05.880Z,35.70
2023-04-14T11:48:32.882Z,34.30
2023-04-14T11:51:03.280Z,31.60
2023-04-14T11:53:30.351Z,28.90
2023-04-14T11:55:57.545Z,31.90
2023-04-14T11:58:26.416Z,28.80
2023-04-14T12:00:56.077Z,28.80
2023-04-14T12:03:30.569Z,30.70
2023-04-14T12:05:59.938Z,26.90
2023-04-14T12:08:30.677Z,28.60
2023-04-14T12:10:57.748Z,27.10
2023-04-14T12:13:24.908Z,26.90
2023-04-14T12:15:52.757Z,27.70
2023-04-14T12:20:54.594Z,29.20
2023-04-14T12:23:21.629Z,29.20
2023-04-14T12:25:51.926Z,28.60
2023-04-14T12:28:24.081Z,30.00
2023-04-14T12:30:52.885Z,31.80
2023-04-14T12:33:23.347Z,31.90
2023-04-14T12:35:53.583Z,30.30
2023-04-14T12:38:27.999Z,32.90
2023-04-14T12:40:56.518Z,30.10
2023-04-14T12:43:31.929Z,31.00
2023-04-14T12:45:59.737Z,31.30
2023-04-14T12:48:48.454Z,31.90
2023-04-14T12:51:19.423Z,29.90
2023-04-14T12:53:47.666Z,32.30
2023-04-14T12:56:27.415Z,34.50
2023-04-14T12:58:54.262Z,34.90
2023-04-14T13:01:22.478Z,36.40
2023-04-14T13:03:51.231Z,34.00
2023-04-14T13:06:20.095Z,35.20
2023-04-14T13:08:51.571Z,36.70
2023-04-14T13:11:19.512Z,37.50
2023-04-14T13:13:46.661Z,37.30
2023-04-14T13:16:16.246Z,35.60
2023-04-14T13:18:45.630Z,39.60
2023-04-14T13:21:12.738Z,41.60
2023-04-14T13:23:39.707Z,38.10
2023-04-14T13:26:06.345Z,36.40
2023-04-14T13:28:32.993Z,39.10
2023-04-14T13:30:59.624Z,41.50
2023-04-14T13:33:27.458Z,39.50
2023-04-14T13:35:55.544Z,43.20
2023-04-14T13:38:22.399Z,42.80
2023-04-14T13:40:49.142Z,44.10
2023-04-14T13:43:18.299Z,42.80
2023-04-14T13:45:45.179Z,41.30
2023-04-14T13:48:11.844Z,38.40
2023-04-14T13:50:38.511Z,43.20
2023-04-14T13:53:05.620Z,42.70
2023-04-14T13:55:32.461Z,39.90
2023-04-14T13:57:59.105Z,40.40
2023-04-14T14:00:26.277Z,41.70
2023-04-14T14:02:53.060Z,43.20
2023-04-14T14:05:19.806Z,41.90
2023-04-14T14:07:47.197Z,44.50
2023-04-14T14:10:13.812Z,39.80
2023-04-14T14:12:40.407Z,39.00
2023-04-14T14:15:08.753Z,44.60
2023-04-14T14:17:36.777Z,41.00
2023-04-14T14:20:03.864Z,42.40
2023-04-14T14:22:30.722Z,43.00
2023-04-14T14:25:10.820Z,38.00
2023-04-14T14:27:44.809Z,45.20
2023-04-14T14:30:11.911Z,43.70
2023-04-14T14:32:38.566Z,45.00
2023-04-14T14:35:05.626Z,44.20
2023-04-14T14:37:32.319Z,44.30
2023-04-14T14:39:58.975Z,47.00
2023-04-14T14:42:26.778Z,40.60
2023-04-14T14:44:53.489Z,41.40
2023-04-14T14:47:20.354Z,40.70
2023-04-14T14:49:58.806Z,41.90
2023-04-14T14:52:36.142Z,41.00
2023-04-14T14:55:03.420Z,40.70
2023-04-14T14:57:30.718Z,41.20
2023-04-14T14:59:57.693Z,40.50
2023-04-14T15:02:25.354Z,41.20
2023-04-14T15:04:52.358Z,42.80
2023-04-14T15:07:18.967Z,42.00
2023-04-14T15:09:46.970Z,43.10
2023-04-14T15:12:13.601Z,42.80
2023-04-14T15:14:40.205Z,42.90
2023-04-14T15:17:07.014Z,42.90
2023-04-14T15:19:33.621Z,43.60
2023-04-14T15:22:01.402Z,44.70
2023-04-14T15:24:28.246Z,43.20
2023-04-14T15:26:54.832Z,42.30
2023-04-14T15:29:24.773Z,43.30
2023-04-14T15:31:51.523Z,44.20
2023-04-14T15:34:18.146Z,42.70
2023-04-14T15:36:44.811Z,43.00
2023-04-14T15:39:11.384Z,45.20
2023-04-14T15:41:38.033Z,43.50
2023-04-14T15:44:04.848Z,44.00
2023-04-14T15:46:31.687Z,44.40
2023-04-14T15:48:58.834Z,45.70
2023-04-14T15:51:25.408Z,44.60
2023-04-14T15:53:52.160Z,45.20
2023-04-14T15:56:19.032Z,44.00
2023-04-14T15:58:45.676Z,43.60
2023-04-14T16:01:12.356Z,45.70
2023-04-14T16:03:39.162Z,42.70
2023-04-14T16:06:06.988Z,43.60
2023-04-14T16:08:33.678Z,44.00
2023-04-14T16:11:00.292Z,46.00
2023-04-14T16:13:27.323Z,45.20
2023-04-14T16:15:54.039Z,46.90
2023-04-14T16:18:20.793Z,46.10
2023-04-14T16:20:49.981Z,45.80
2023-04-14T16:23:16.674Z,45.90
2023-04-14T16:25:48.470Z,46.50
2023-04-14T16:28:16.199Z,46.30
2023-04-14T16:30:44.024Z,45.90
2023-04-14T16:33:10.768Z,47.40
2023-04-14T16:35:37.404Z,47.30
2023-04-14T16:38:08.142Z,46.90
2023-04-14T16:40:35.679Z,48.00
2023-04-14T16:43:02.243Z,48.70
2023-04-14T16:45:34.852Z,48.90
2023-04-14T16:48:01.930Z,49.10
2023-04-14T16:50:29.395Z,49.70
2023-04-14T16:52:56.280Z,49.30
2023-04-14T16:55:22.923Z,49.10
2023-04-14T16:57:49.519Z,49.60
2023-04-14T17:00:16.860Z,49.20
2023-04-14T17:02:43.677Z,54.70
2023-04-14T17:05:12.871Z,50.10
2023-04-14T17:07:39.695Z,52.00
2023-04-14T17:10:06.588Z,52.00
2023-04-14T17:12:34.248Z,52.30
2023-04-14T17:15:01.096Z,50.60
2023-04-14T17:17:28.395Z,52.40
2023-04-14T17:19:56.728Z,51.10
2023-04-14T17:22:24.494Z,52.00
2023-04-14T17:24:52.021Z,53.20
2023-04-14T17:27:18.862Z,53.00
2023-04-14T17:29:46.285Z,53.30
2023-04-14T17:32:19.579Z,54.60
2023-04-14T17:34:49.862Z,53.40
2023-04-14T17:37:16.516Z,54.40
2023-04-14T17:39:43.675Z,54.10
2023-04-14T17:42:11.364Z,56.00
2023-04-14T17:44:38.123Z,56.80
2023-04-14T17:47:13.083Z,55.80
2023-04-14T17:49:39.853Z,57.80
2023-04-14T17:52:07.857Z,59.20
2023-04-14T17:54:35.683Z,60.20
2023-04-14T17:57:03.515Z,59.80
2023-04-14T17:59:31.523Z,63.00
2023-04-14T18:01:58.517Z,68.00
2023-04-14T18:04:25.427Z,68.80
2023-04-14T18:06:52.072Z,70.30
2023-04-14T18:09:18.660Z,71.70
2023-04-14T18:11:45.242Z,73.70
2023-04-14T18:14:11.819Z,77.00
2023-04-14T18:16:38.833Z,77.50
2023-04-14T18:19:05.914Z,78.60
2023-04-14T18:21:32.535Z,78.10
2023-04-14T18:26:29.834Z,81.90
2023-04-14T18:28:57.271Z,81.90
2023-04-14T18:31:25.268Z,82.70
2023-04-14T18:33:52.947Z,84.50
2023-04-14T18:36:19.604Z,84.90
2023-04-14T18:38:46.398Z,87.00
2023-04-14T18:41:13.112Z,87.70
2023-04-14T18:43:39.715Z,86.60
2023-04-14T18:46:06.558Z,87.60
2023-04-14T18:48:33.387Z,89.20
2023-04-14T18:51:02.306Z,90.00
2023-04-14T18:53:29.490Z,90.00
2023-04-14T18:55:56.081Z,89.50
2023-04-14T18:58:22.887Z,90.80
2023-04-14T19:00:49.522Z,90.90
2023-04-14T19:03:18.456Z,91.40
2023-04-14T19:05:45.433Z,92.40
2023-04-14T19:08:12.033Z,92.50
2023-04-14T19:10:40.454Z,92.70
2023-04-14T19:13:07.296Z,94.20
2023-04-14T19:15:33.986Z,94.00
2023-04-14T19:18:01.413Z,95.20
2023-04-14T19:20:28.100Z,95.00
2023-04-14T19:22:54.877Z,95.00
2023-04-14T19:25:22.387Z,95.30
2023-04-14T19:27:49.282Z,96.00
2023-04-14T19:30:15.951Z,96.00
2023-04-14T19:32:42.604Z,96.40
2023-04-14T19:35:10.369Z,97.30
2023-04-14T19:37:38.335Z,96.50
2023-04-14T19:40:06.491Z,96.60
2023-04-14T19:42:33.567Z,96.90
2023-04-14T19:45:01.102Z,97.00
2023-04-14T19:47:27.906Z,97.20
2023-04-14T19:49:55.116Z,96.80
2023-04-14T19:52:22.380Z,96.60
2023-04-14T19:54:49.502Z,97.30
2023-04-14T19:57:16.667Z,97.20
2023-04-14T19:59:44.059Z,97.40
2023-04-14T20:02:13.090Z,97.50
2023-04-14T20:04:40.411Z,97.70
2023-04-14T20:07:10.436Z,98.10
2023-04-14T20:09:37.050Z,98.00
2023-04-14T20:12:04.117Z,98.80
2023-04-14T20:14:32.913Z,98.80
2023-04-14T20:16:59.705Z,99.20
2023-04-14T20:19:26.358Z,99.10
2023-04-14T20:21:53.287Z,99.10
2023-04-14T20:24:19.991Z,99.20
2023-04-14T20:26:46.655Z,98.70
2023-04-14T20:29:13.445Z,98.20
2023-04-14T20:31:41.585Z,99.00
2023-04-14T20:34:09.794Z,99.30
2023-04-14T20:36:37.553Z,99.40
2023-04-14T20:39:05.532Z,99.20
2023-04-14T20:41:33.814Z,99.90
2023-04-14T20:44:01.207Z,99.80
2023-04-14T20:46:28.691Z,99.90
2023-04-14T20:48:55.779Z,99.90
2023-04-14T20:51:22.687Z,99.90
2023-04-14T20:53:50.235Z,99.90
2023-04-14T20:56:16.841Z,99.90
2023-04-14T20:58:43.663Z,99.90
2023-04-14T21:01:10.433Z,99.90
2023-04-14T21:03:37.284Z,99.90
2023-04-14T21:06:04.151Z,99.90
2023-04-14T21:08:30.791Z,99.90
2023-04-14T21:11:15.319Z,99.90
2023-04-14T21:15:28.766Z,99.90
2023-04-14T21:16:32.357Z,99.90
2023-04-14T21:18:59.245Z,99.90
2023-04-14T21:21:26.975Z,99.90
2023-04-14T21:23:53.697Z,99.90
2023-04-14T21:26:20.340Z,99.90
2023-04-14T21:28:47.017Z,99.90
2023-04-14T21:31:13.661Z,99.90
2023-04-14T21:33:41.681Z,99.90
2023-04-14T21:36:09.765Z,99.90
2023-04-14T21:38:37.806Z,99.90
2023-04-14T21:41:04.821Z,99.90
2023-04-14T21:43:32.489Z,99.90
2023-04-14T21:45:59.410Z,99.90
2023-04-14T21:48:26.220Z,99.90
2023-04-14T21:50:52.878Z,99.90
2023-04-14T21:53:20.262Z,99.90
2023-04-14T21:55:47.291Z,99.90
2023-04-14T21:58:29.962Z,99.90
2023-04-14T22:00:56.588Z,99.90
2023-04-14T22:03:23.410Z,99.90
2023-04-14T22:05:53.156Z,99.90
2023-04-14T22:08:19.828Z,99.90
2023-04-14T22:10:47.249Z,99.90
2023-04-14T22:13:14.822Z,99.90
2023-04-14T22:15:42.952Z,99.90
2023-04-14T22:18:09.830Z,99.90
2023-04-14T22:20:36.407Z,99.90
2023-04-14T22:23:03.156Z,99.90
2023-04-14T22:25:30.090Z,99.90
2023-04-14T22:27:57.273Z,99.90
2023-04-14T22:30:23.936Z,99.90
2023-04-14T22:32:50.629Z,99.90
2023-04-14T22:35:17.384Z,99.90
2023-04-14T22:37:43.951Z,99.90
2023-04-14T22:40:10.751Z,99.90
2023-04-14T22:42:37.699Z,99.90
2023-04-14T22:45:05.586Z,99.90
2023-04-14T22:47:32.539Z,99.90
2023-04-14T22:50:00.093Z,99.90
2023-04-14T22:52:27.841Z,99.90
2023-04-14T22:54:54.556Z,99.90
2023-04-14T22:57:21.530Z,99.90
2023-04-14T22:59:48.178Z,99.90
2023-04-14T23:02:14.881Z,99.90
2023-04-14T23:04:42.115Z,99.90
2023-04-14T23:07:08.931Z,99.90
2023-04-14T23:09:35.507Z,99.90
2023-04-14T23:12:02.536Z,99.90
2023-04-14T23:14:29.186Z,99.90
2023-04-14T23:16:56.019Z,99.90
2023-04-14T23:19:22.691Z,99.90
2023-04-14T23:21:50.857Z,99.90
2023-04-14T23:24:17.989Z,99.90
2023-04-14T23:26:44.671Z,99.90
2023-04-14T23:29:11.750Z,99.90
2023-04-14T23:31:38.454Z,99.90
2023-04-14T23:34:05.361Z,99.90
2023-04-14T23:36:31.957Z,99.90
2023-04-14T23:38:58.669Z,99.90
2023-04-14T23:41:25.370Z,99.90
2023-04-14T23:43:52.010Z,99.90
2023-04-14T23:46:18.707Z,99.90
2023-04-14T23:48:46.615Z,99.90
2023-04-14T23:51:17.328Z,99.90
2023-04-14T23:53:45.435Z,99.90
2023-04-14T23:56:12.070Z,99.90
2023-04-14T23:58:38.962Z,99.90
